sensor_id;sensor_type;location;lat;lon;timestamp;temperature;humidity
69589;SHT31;56792;50.644;17.984;2024-03-02T00:00:24;9.93;87.94
69589;SHT31;56792;50.644;17.984;2024-03-02T00:02:55;9.93;88.00
69589;SHT31;56792;50.644;17.984;2024-03-02T00:05:27;9.91;88.00
69589;SHT31;56792;50.644;17.984;2024-03-02T00:07:58;9.91;88.00
69589;SHT31;56792;50.644;17.984;2024-03-02T00:10:33;9.90;87.92
69589;SHT31;56792;50.644;17.984;2024-03-02T00:13:08;9.89;87.88
69589;SHT31;56792;50.644;17.984;2024-03-02T00:15:41;9.88;87.82
69589;SHT31;56792;50.644;17.984;2024-03-02T00:18:18;9.88;87.84
69589;SHT31;56792;50.644;17.984;2024-03-02T00:20:54;9.86;87.82
69589;SHT31;56792;50.644;17.984;2024-03-02T00:23:29;9.85;87.80
69589;SHT31;56792;50.644;17.984;2024-03-02T00:26:01;9.84;87.80
69589;SHT31;56792;50.644;17.984;2024-03-02T00:28:35;9.83;87.80
69589;SHT31;56792;50.644;17.984;2024-03-02T00:31:11;9.82;87.80
69589;SHT31;56792;50.644;17.984;2024-03-02T00:33:44;9.82;87.76
69589;SHT31;56792;50.644;17.984;2024-03-02T00:36:18;9.81;87.77
69589;SHT31;56792;50.644;17.984;2024-03-02T00:38:54;9.78;87.71
69589;SHT31;56792;50.644;17.984;2024-03-02T00:41:27;9.76;87.70
69589;SHT31;56792;50.644;17.984;2024-03-02T00:43:59;9.73;87.71
69589;SHT31;56792;50.644;17.984;2024-03-02T00:46:33;9.70;87.71
69589;SHT31;56792;50.644;17.984;2024-03-02T00:49:10;9.69;87.70
69589;SHT31;56792;50.644;17.984;2024-03-02T00:51:49;9.68;87.75
69589;SHT31;56792;50.644;17.984;2024-03-02T00:54:22;9.68;87.70
69589;SHT31;56792;50.644;17.984;2024-03-02T00:56:55;9.69;87.68
69589;SHT31;56792;50.644;17.984;2024-03-02T00:59:27;9.69;87.69
69589;SHT31;56792;50.644;17.984;2024-03-02T01:01:58;9.69;87.70
69589;SHT31;56792;50.644;17.984;2024-03-02T01:04:31;9.67;87.60
69589;SHT31;56792;50.644;17.984;2024-03-02T01:07:02;9.67;87.60
69589;SHT31;56792;50.644;17.984;2024-03-02T01:09:34;9.66;87.63
69589;SHT31;56792;50.644;17.984;2024-03-02T01:12:06;9.67;87.54
69589;SHT31;56792;50.644;17.984;2024-03-02T01:14:38;9.67;87.51
69589;SHT31;56792;50.644;17.984;2024-03-02T01:17:09;9.68;87.50
69589;SHT31;56792;50.644;17.984;2024-03-02T01:19:42;9.69;87.50
69589;SHT31;56792;50.644;17.984;2024-03-02T01:22:14;9.70;87.50
69589;SHT31;56792;50.644;17.984;2024-03-02T01:24:51;9.68;87.50
69589;SHT31;56792;50.644;17.984;2024-03-02T01:27:23;9.68;87.49
69589;SHT31;56792;50.644;17.984;2024-03-02T01:29:54;9.69;87.51
69589;SHT31;56792;50.644;17.984;2024-03-02T01:32:26;9.69;87.50
69589;SHT31;56792;50.644;17.984;2024-03-02T01:35:00;9.69;87.50
69589;SHT31;56792;50.644;17.984;2024-03-02T01:37:33;9.69;87.50
69589;SHT31;56792;50.644;17.984;2024-03-02T01:40:05;9.68;87.50
69589;SHT31;56792;50.644;17.984;2024-03-02T01:42:40;9.68;87.50
69589;SHT31;56792;50.644;17.984;2024-03-02T01:45:12;9.69;87.50
69589;SHT31;56792;50.644;17.984;2024-03-02T01:47:44;9.69;87.48
69589;SHT31;56792;50.644;17.984;2024-03-02T01:50:16;9.69;87.49
69589;SHT31;56792;50.644;17.984;2024-03-02T01:52:57;9.67;87.50
69589;SHT31;56792;50.644;17.984;2024-03-02T01:55:29;9.65;87.50
69589;SHT31;56792;50.644;17.984;2024-03-02T01:58:01;9.65;87.46
69589;SHT31;56792;50.644;17.984;2024-03-02T02:00:33;9.64;87.42
69589;SHT31;56792;50.644;17.984;2024-03-02T02:03:05;9.63;87.40
69589;SHT31;56792;50.644;17.984;2024-03-02T02:05:36;9.61;87.39
69589;SHT31;56792;50.644;17.984;2024-03-02T02:08:09;9.62;87.40
69589;SHT31;56792;50.644;17.984;2024-03-02T02:10:41;9.62;87.38
69589;SHT31;56792;50.644;17.984;2024-03-02T02:13:13;9.62;87.30
69589;SHT31;56792;50.644;17.984;2024-03-02T02:15:44;9.62;87.30
69589;SHT31;56792;50.644;17.984;2024-03-02T02:18:17;9.62;87.30
69589;SHT31;56792;50.644;17.984;2024-03-02T02:20:48;9.63;87.30
69589;SHT31;56792;50.644;17.984;2024-03-02T02:23:20;9.63;87.29
69589;SHT31;56792;50.644;17.984;2024-03-02T02:25:51;9.62;87.30
69589;SHT31;56792;50.644;17.984;2024-03-02T02:28:23;9.62;87.25
69589;SHT31;56792;50.644;17.984;2024-03-02T02:30:55;9.62;87.21
69589;SHT31;56792;50.644;17.984;2024-03-02T02:33:27;9.62;87.17
69589;SHT31;56792;50.644;17.984;2024-03-02T02:35:59;9.61;87.10
69589;SHT31;56792;50.644;17.984;2024-03-02T02:38:30;9.62;87.10
69589;SHT31;56792;50.644;17.984;2024-03-02T02:41:07;9.61;87.10
69589;SHT31;56792;50.644;17.984;2024-03-02T02:43:38;9.60;87.10
69589;SHT31;56792;50.644;17.984;2024-03-02T02:46:10;9.60;87.10
69589;SHT31;56792;50.644;17.984;2024-03-02T02:48:41;9.60;87.09
69589;SHT31;56792;50.644;17.984;2024-03-02T02:51:13;9.60;87.03
69589;SHT31;56792;50.644;17.984;2024-03-02T02:53:46;9.59;87.00
69589;SHT31;56792;50.644;17.984;2024-03-02T02:56:17;9.58;86.99
69589;SHT31;56792;50.644;17.984;2024-03-02T02:58:49;9.54;86.96
69589;SHT31;56792;50.644;17.984;2024-03-02T03:01:20;9.51;86.91
69589;SHT31;56792;50.644;17.984;2024-03-02T03:03:52;9.47;86.89
69589;SHT31;56792;50.644;17.984;2024-03-02T03:06:24;9.44;86.86
69589;SHT31;56792;50.644;17.984;2024-03-02T03:08:55;9.42;86.82
69589;SHT31;56792;50.644;17.984;2024-03-02T03:11:27;9.38;86.80
69589;SHT31;56792;50.644;17.984;2024-03-02T03:13:58;9.37;86.80
69589;SHT31;56792;50.644;17.984;2024-03-02T03:16:31;9.34;86.78
69589;SHT31;56792;50.644;17.984;2024-03-02T03:19:03;9.33;86.79
69589;SHT31;56792;50.644;17.984;2024-03-02T03:21:35;9.31;86.80
69589;SHT31;56792;50.644;17.984;2024-03-02T03:24:06;9.28;86.80
69589;SHT31;56792;50.644;17.984;2024-03-02T03:26:38;9.26;86.76
69589;SHT31;56792;50.644;17.984;2024-03-02T03:29:09;9.25;86.79
69589;SHT31;56792;50.644;17.984;2024-03-02T03:31:41;9.22;86.76
69589;SHT31;56792;50.644;17.984;2024-03-02T03:34:12;9.19;86.79
69589;SHT31;56792;50.644;17.984;2024-03-02T03:36:44;9.17;86.80
69589;SHT31;56792;50.644;17.984;2024-03-02T03:39:15;9.15;86.80
69589;SHT31;56792;50.644;17.984;2024-03-02T03:41:47;9.12;86.82
69589;SHT31;56792;50.644;17.984;2024-03-02T03:44:18;9.09;86.80
69589;SHT31;56792;50.644;17.984;2024-03-02T03:46:50;9.05;86.79
69589;SHT31;56792;50.644;17.984;2024-03-02T03:49:21;9.02;86.80
69589;SHT31;56792;50.644;17.984;2024-03-02T03:51:53;8.97;86.79
69589;SHT31;56792;50.644;17.984;2024-03-02T03:54:24;8.92;86.75
69589;SHT31;56792;50.644;17.984;2024-03-02T03:56:56;8.89;86.80
69589;SHT31;56792;50.644;17.984;2024-03-02T03:59:28;8.86;86.84
69589;SHT31;56792;50.644;17.984;2024-03-02T04:01:59;8.84;86.87
69589;SHT31;56792;50.644;17.984;2024-03-02T04:04:31;8.81;86.88
69589;SHT31;56792;50.644;17.984;2024-03-02T04:07:03;8.79;86.83
69589;SHT31;56792;50.644;17.984;2024-03-02T04:09:34;8.77;86.87
69589;SHT31;56792;50.644;17.984;2024-03-02T04:12:06;8.73;86.81
69589;SHT31;56792;50.644;17.984;2024-03-02T04:14:39;8.70;86.83
69589;SHT31;56792;50.644;17.984;2024-03-02T04:17:11;8.65;86.85
69589;SHT31;56792;50.644;17.984;2024-03-02T04:19:42;8.66;86.90
69589;SHT31;56792;50.644;17.984;2024-03-02T04:22:14;8.64;86.89
69589;SHT31;56792;50.644;17.984;2024-03-02T04:24:46;8.62;86.91
69589;SHT31;56792;50.644;17.984;2024-03-02T04:27:17;8.61;87.00
69589;SHT31;56792;50.644;17.984;2024-03-02T04:29:49;8.61;87.00
69589;SHT31;56792;50.644;17.984;2024-03-02T04:32:20;8.64;87.00
69589;SHT31;56792;50.644;17.984;2024-03-02T04:34:52;8.64;86.97
69589;SHT31;56792;50.644;17.984;2024-03-02T04:37:23;8.64;87.00
69589;SHT31;56792;50.644;17.984;2024-03-02T04:39:55;8.65;87.00
69589;SHT31;56792;50.644;17.984;2024-03-02T04:42:26;8.65;87.00
69589;SHT31;56792;50.644;17.984;2024-03-02T04:44:58;8.64;86.96
69589;SHT31;56792;50.644;17.984;2024-03-02T04:47:30;8.62;86.98
69589;SHT31;56792;50.644;17.984;2024-03-02T04:50:01;8.61;86.98
69589;SHT31;56792;50.644;17.984;2024-03-02T04:52:35;8.60;87.00
69589;SHT31;56792;50.644;17.984;2024-03-02T04:55:06;8.59;87.00
69589;SHT31;56792;50.644;17.984;2024-03-02T04:57:51;8.57;87.01
69589;SHT31;56792;50.644;17.984;2024-03-02T05:00:23;8.55;87.06
69589;SHT31;56792;50.644;17.984;2024-03-02T05:02:54;8.53;87.10
69589;SHT31;56792;50.644;17.984;2024-03-02T05:05:26;8.52;87.06
69589;SHT31;56792;50.644;17.984;2024-03-02T05:07:57;8.46;87.09
69589;SHT31;56792;50.644;17.984;2024-03-02T05:10:29;8.42;87.10
69589;SHT31;56792;50.644;17.984;2024-03-02T05:13:03;8.36;87.10
69589;SHT31;56792;50.644;17.984;2024-03-02T05:15:34;8.32;87.17
69589;SHT31;56792;50.644;17.984;2024-03-02T05:18:07;8.27;87.20
69589;SHT31;56792;50.644;17.984;2024-03-02T05:20:38;8.24;87.18
69589;SHT31;56792;50.644;17.984;2024-03-02T05:23:10;8.20;87.26
69589;SHT31;56792;50.644;17.984;2024-03-02T05:25:42;8.14;87.33
69589;SHT31;56792;50.644;17.984;2024-03-02T05:28:13;8.09;87.31
69589;SHT31;56792;50.644;17.984;2024-03-02T05:30:45;8.02;87.35
69589;SHT31;56792;50.644;17.984;2024-03-02T05:33:16;7.99;87.50
69589;SHT31;56792;50.644;17.984;2024-03-02T05:35:49;7.96;87.53
69589;SHT31;56792;50.644;17.984;2024-03-02T05:38:20;7.94;87.56
69589;SHT31;56792;50.644;17.984;2024-03-02T05:40:52;7.92;87.48
69589;SHT31;56792;50.644;17.984;2024-03-02T05:43:23;7.86;87.50
69589;SHT31;56792;50.644;17.984;2024-03-02T05:45:55;7.84;87.49
69589;SHT31;56792;50.644;17.984;2024-03-02T05:48:27;7.82;87.53
69589;SHT31;56792;50.644;17.984;2024-03-02T05:50:58;7.80;87.60
69589;SHT31;56792;50.644;17.984;2024-03-02T05:53:30;7.78;87.61
69589;SHT31;56792;50.644;17.984;2024-03-02T05:56:05;7.78;87.66
69589;SHT31;56792;50.644;17.984;2024-03-02T05:58:37;7.80;87.60
69589;SHT31;56792;50.644;17.984;2024-03-02T06:01:20;7.76;87.63
69589;SHT31;56792;50.644;17.984;2024-03-02T06:03:55;7.77;87.69
69589;SHT31;56792;50.644;17.984;2024-03-02T06:06:26;7.73;87.68
69589;SHT31;56792;50.644;17.984;2024-03-02T06:08:59;7.71;87.85
69589;SHT31;56792;50.644;17.984;2024-03-02T06:11:34;7.70;87.90
69589;SHT31;56792;50.644;17.984;2024-03-02T06:14:07;7.70;87.97
69589;SHT31;56792;50.644;17.984;2024-03-02T06:16:38;7.72;88.01
69589;SHT31;56792;50.644;17.984;2024-03-02T06:19:10;7.74;88.01
69589;SHT31;56792;50.644;17.984;2024-03-02T06:21:41;7.72;87.97
69589;SHT31;56792;50.644;17.984;2024-03-02T06:24:13;7.74;88.09
69589;SHT31;56792;50.644;17.984;2024-03-02T06:26:45;7.81;88.10
69589;SHT31;56792;50.644;17.984;2024-03-02T06:29:16;7.87;88.03
69589;SHT31;56792;50.644;17.984;2024-03-02T06:31:48;7.91;88.10
69589;SHT31;56792;50.644;17.984;2024-03-02T06:34:20;7.97;88.14
69589;SHT31;56792;50.644;17.984;2024-03-02T06:36:51;8.02;88.15
69589;SHT31;56792;50.644;17.984;2024-03-02T06:39:23;8.07;88.11
69589;SHT31;56792;50.644;17.984;2024-03-02T06:41:54;8.12;88.06
69589;SHT31;56792;50.644;17.984;2024-03-02T06:44:26;8.15;88.00
69589;SHT31;56792;50.644;17.984;2024-03-02T06:46:57;8.17;87.94
69589;SHT31;56792;50.644;17.984;2024-03-02T06:49:29;8.20;87.91
69589;SHT31;56792;50.644;17.984;2024-03-02T06:52:02;8.22;87.90
69589;SHT31;56792;50.644;17.984;2024-03-02T06:54:34;8.24;87.88
69589;SHT31;56792;50.644;17.984;2024-03-02T06:57:06;8.27;87.82
69589;SHT31;56792;50.644;17.984;2024-03-02T06:59:38;8.29;87.71
69589;SHT31;56792;50.644;17.984;2024-03-02T07:02:09;8.31;87.66
69589;SHT31;56792;50.644;17.984;2024-03-02T07:04:41;8.32;87.50
69589;SHT31;56792;50.644;17.984;2024-03-02T07:07:13;8.34;87.50
69589;SHT31;56792;50.644;17.984;2024-03-02T07:09:44;8.38;87.50
69589;SHT31;56792;50.644;17.984;2024-03-02T07:12:16;8.40;87.41
69589;SHT31;56792;50.644;17.984;2024-03-02T07:14:47;8.42;87.35
69589;SHT31;56792;50.644;17.984;2024-03-02T07:17:38;8.49;87.30
69589;SHT31;56792;50.644;17.984;2024-03-02T07:20:10;8.54;87.19
69589;SHT31;56792;50.644;17.984;2024-03-02T07:22:42;8.56;86.99
69589;SHT31;56792;50.644;17.984;2024-03-02T07:25:14;8.62;87.15
69589;SHT31;56792;50.644;17.984;2024-03-02T07:27:45;8.68;87.16
69589;SHT31;56792;50.644;17.984;2024-03-02T07:30:17;8.73;87.13
69589;SHT31;56792;50.644;17.984;2024-03-02T07:32:51;8.79;87.01
69589;SHT31;56792;50.644;17.984;2024-03-02T07:35:22;8.85;86.81
69589;SHT31;56792;50.644;17.984;2024-03-02T07:37:54;8.89;86.81
69589;SHT31;56792;50.644;17.984;2024-03-02T07:40:26;8.93;86.68
69589;SHT31;56792;50.644;17.984;2024-03-02T07:42:57;8.97;86.41
69589;SHT31;56792;50.644;17.984;2024-03-02T07:45:29;9.01;86.01
69589;SHT31;56792;50.644;17.984;2024-03-02T07:48:02;9.07;86.00
69589;SHT31;56792;50.644;17.984;2024-03-02T07:50:35;9.14;85.82
69589;SHT31;56792;50.644;17.984;2024-03-02T07:53:07;9.18;85.57
69589;SHT31;56792;50.644;17.984;2024-03-02T07:55:38;9.24;85.64
69589;SHT31;56792;50.644;17.984;2024-03-02T07:58:10;9.31;85.46
69589;SHT31;56792;50.644;17.984;2024-03-02T08:00:42;9.37;85.17
69589;SHT31;56792;50.644;17.984;2024-03-02T08:03:14;9.42;85.08
69589;SHT31;56792;50.644;17.984;2024-03-02T08:05:46;9.51;85.20
69589;SHT31;56792;50.644;17.984;2024-03-02T08:08:17;9.56;85.01
69589;SHT31;56792;50.644;17.984;2024-03-02T08:10:49;9.60;84.74
69589;SHT31;56792;50.644;17.984;2024-03-02T08:13:21;9.66;84.62
69589;SHT31;56792;50.644;17.984;2024-03-02T08:15:52;9.66;84.11
69589;SHT31;56792;50.644;17.984;2024-03-02T08:18:24;9.70;84.10
69589;SHT31;56792;50.644;17.984;2024-03-02T08:20:55;9.81;84.20
69589;SHT31;56792;50.644;17.984;2024-03-02T08:23:27;9.89;83.96
69589;SHT31;56792;50.644;17.984;2024-03-02T08:25:59;9.94;83.82
69589;SHT31;56792;50.644;17.984;2024-03-02T08:28:30;9.99;83.62
69589;SHT31;56792;50.644;17.984;2024-03-02T08:31:03;10.01;83.44
69589;SHT31;56792;50.644;17.984;2024-03-02T08:33:35;10.04;83.36
69589;SHT31;56792;50.644;17.984;2024-03-02T08:36:07;10.07;83.23
69589;SHT31;56792;50.644;17.984;2024-03-02T08:38:39;10.13;83.22
69589;SHT31;56792;50.644;17.984;2024-03-02T08:41:12;10.21;83.08
69589;SHT31;56792;50.644;17.984;2024-03-02T08:43:43;10.27;82.88
69589;SHT31;56792;50.644;17.984;2024-03-02T08:46:15;10.33;82.60
69589;SHT31;56792;50.644;17.984;2024-03-02T08:48:46;10.41;82.58
69589;SHT31;56792;50.644;17.984;2024-03-02T08:51:18;10.53;82.50
69589;SHT31;56792;50.644;17.984;2024-03-02T08:53:49;10.64;82.44
69589;SHT31;56792;50.644;17.984;2024-03-02T08:56:21;10.73;82.03
69589;SHT31;56792;50.644;17.984;2024-03-02T08:58:53;10.80;81.44
69589;SHT31;56792;50.644;17.984;2024-03-02T09:01:24;10.90;81.17
69589;SHT31;56792;50.644;17.984;2024-03-02T09:03:56;11.04;81.52
69589;SHT31;56792;50.644;17.984;2024-03-02T09:06:28;11.19;81.36
69589;SHT31;56792;50.644;17.984;2024-03-02T09:08:59;11.33;81.12
69589;SHT31;56792;50.644;17.984;2024-03-02T09:11:31;11.40;80.40
69589;SHT31;56792;50.644;17.984;2024-03-02T09:14:03;11.44;79.67
69589;SHT31;56792;50.644;17.984;2024-03-02T09:16:35;11.55;79.61
69589;SHT31;56792;50.644;17.984;2024-03-02T09:19:06;11.68;79.51
69589;SHT31;56792;50.644;17.984;2024-03-02T09:21:38;11.80;79.03
69589;SHT31;56792;50.644;17.984;2024-03-02T09:24:11;11.85;78.00
69589;SHT31;56792;50.644;17.984;2024-03-02T09:26:43;11.92;77.98
69589;SHT31;56792;50.644;17.984;2024-03-02T09:29:14;12.04;77.68
69589;SHT31;56792;50.644;17.984;2024-03-02T09:31:47;12.22;78.11
69589;SHT31;56792;50.644;17.984;2024-03-02T09:34:18;12.39;77.89
69589;SHT31;56792;50.644;17.984;2024-03-02T09:36:51;12.45;76.72
69589;SHT31;56792;50.644;17.984;2024-03-02T09:39:22;12.50;76.24
69589;SHT31;56792;50.644;17.984;2024-03-02T09:41:54;12.63;76.94
69589;SHT31;56792;50.644;17.984;2024-03-02T09:44:26;12.83;77.16
69589;SHT31;56792;50.644;17.984;2024-03-02T09:46:59;12.99;76.95
69589;SHT31;56792;50.644;17.984;2024-03-02T09:49:31;13.14;76.67
69589;SHT31;56792;50.644;17.984;2024-03-02T09:52:02;13.29;76.70
69589;SHT31;56792;50.644;17.984;2024-03-02T09:54:35;13.45;76.65
69589;SHT31;56792;50.644;17.984;2024-03-02T09:57:06;13.58;76.23
69589;SHT31;56792;50.644;17.984;2024-03-02T09:59:38;13.65;75.43
69589;SHT31;56792;50.644;17.984;2024-03-02T10:02:10;13.70;75.17
69589;SHT31;56792;50.644;17.984;2024-03-02T10:04:41;13.76;75.15
69589;SHT31;56792;50.644;17.984;2024-03-02T10:07:14;13.78;74.86
69589;SHT31;56792;50.644;17.984;2024-03-02T10:09:47;13.81;74.79
69589;SHT31;56792;50.644;17.984;2024-03-02T10:12:19;13.83;74.77
69589;SHT31;56792;50.644;17.984;2024-03-02T10:14:51;13.79;74.24
69589;SHT31;56792;50.644;17.984;2024-03-02T10:17:36;13.77;74.03
69589;SHT31;56792;50.644;17.984;2024-03-02T10:22:55;13.87;74.10
69589;SHT31;56792;50.644;17.984;2024-03-02T10:25:39;13.88;72.85
69589;SHT31;56792;50.644;17.984;2024-03-02T10:28:11;13.85;72.23
69589;SHT31;56792;50.644;17.984;2024-03-02T10:30:47;13.83;71.73
69589;SHT31;56792;50.644;17.984;2024-03-02T10:33:19;13.83;71.69
69589;SHT31;56792;50.644;17.984;2024-03-02T10:35:52;13.82;71.40
69589;SHT31;56792;50.644;17.984;2024-03-02T10:38:24;13.78;71.36
69589;SHT31;56792;50.644;17.984;2024-03-02T10:40:56;13.77;71.72
69589;SHT31;56792;50.644;17.984;2024-03-02T10:43:30;13.78;71.67
69589;SHT31;56792;50.644;17.984;2024-03-02T10:46:03;13.76;71.17
69589;SHT31;56792;50.644;17.984;2024-03-02T10:48:34;13.75;70.96
69589;SHT31;56792;50.644;17.984;2024-03-02T10:51:11;13.73;71.13
69589;SHT31;56792;50.644;17.984;2024-03-02T10:53:43;13.75;71.49
69589;SHT31;56792;50.644;17.984;2024-03-02T10:56:15;13.76;71.69
69589;SHT31;56792;50.644;17.984;2024-03-02T10:58:59;13.75;71.02
69589;SHT31;56792;50.644;17.984;2024-03-02T11:01:44;13.74;71.31
69589;SHT31;56792;50.644;17.984;2024-03-02T11:04:18;13.76;71.88
69589;SHT31;56792;50.644;17.984;2024-03-02T11:06:52;13.78;72.01
69589;SHT31;56792;50.644;17.984;2024-03-02T11:09:31;13.77;71.81
69589;SHT31;56792;50.644;17.984;2024-03-02T11:12:09;13.76;71.66
69589;SHT31;56792;50.644;17.984;2024-03-02T11:14:51;13.72;71.10
69589;SHT31;56792;50.644;17.984;2024-03-02T11:17:26;13.73;71.96
69589;SHT31;56792;50.644;17.984;2024-03-02T11:19:58;13.74;71.88
69589;SHT31;56792;50.644;17.984;2024-03-02T11:22:35;13.73;71.85
69589;SHT31;56792;50.644;17.984;2024-03-02T11:25:07;13.73;71.82
69589;SHT31;56792;50.644;17.984;2024-03-02T11:28:01;13.73;72.13
69589;SHT31;56792;50.644;17.984;2024-03-02T11:30:51;13.76;72.39
69589;SHT31;56792;50.644;17.984;2024-03-02T11:33:26;13.81;72.58
69589;SHT31;56792;50.644;17.984;2024-03-02T11:35:58;13.80;72.01
69589;SHT31;56792;50.644;17.984;2024-03-02T11:38:31;13.77;71.35
69589;SHT31;56792;50.644;17.984;2024-03-02T11:41:05;13.78;71.81
69589;SHT31;56792;50.644;17.984;2024-03-02T11:43:38;13.84;71.50
69589;SHT31;56792;50.644;17.984;2024-03-02T11:46:12;13.85;71.42
69589;SHT31;56792;50.644;17.984;2024-03-02T11:48:44;13.83;70.75
69589;SHT31;56792;50.644;17.984;2024-03-02T11:51:17;13.80;70.86
69589;SHT31;56792;50.644;17.984;2024-03-02T11:53:50;13.80;70.66
69589;SHT31;56792;50.644;17.984;2024-03-02T11:56:24;13.81;70.53
69589;SHT31;56792;50.644;17.984;2024-03-02T11:58:59;13.82;70.67
69589;SHT31;56792;50.644;17.984;2024-03-02T12:01:32;13.86;70.93
69589;SHT31;56792;50.644;17.984;2024-03-02T12:04:06;13.89;70.93
69589;SHT31;56792;50.644;17.984;2024-03-02T12:06:38;13.92;70.53
69589;SHT31;56792;50.644;17.984;2024-03-02T12:09:10;13.97;70.80
69589;SHT31;56792;50.644;17.984;2024-03-02T12:11:42;14.06;71.26
69589;SHT31;56792;50.644;17.984;2024-03-02T12:14:13;14.16;71.19
69589;SHT31;56792;50.644;17.984;2024-03-02T12:16:45;14.25;71.29
69589;SHT31;56792;50.644;17.984;2024-03-02T12:19:17;14.30;71.07
69589;SHT31;56792;50.644;17.984;2024-03-02T12:21:48;14.35;70.89
69589;SHT31;56792;50.644;17.984;2024-03-02T12:24:21;14.39;70.90
69589;SHT31;56792;50.644;17.984;2024-03-02T12:26:54;14.36;69.93
69589;SHT31;56792;50.644;17.984;2024-03-02T12:29:26;14.34;69.91
69589;SHT31;56792;50.644;17.984;2024-03-02T12:31:58;14.30;69.98
69589;SHT31;56792;50.644;17.984;2024-03-02T12:34:30;14.28;69.74
69589;SHT31;56792;50.644;17.984;2024-03-02T12:37:02;14.31;69.84
69589;SHT31;56792;50.644;17.984;2024-03-02T12:39:34;14.35;69.77
69589;SHT31;56792;50.644;17.984;2024-03-02T12:42:05;14.33;69.64
69589;SHT31;56792;50.644;17.984;2024-03-02T12:44:37;14.34;69.63
69589;SHT31;56792;50.644;17.984;2024-03-02T12:47:09;14.33;69.10
69589;SHT31;56792;50.644;17.984;2024-03-02T12:49:41;14.34;68.78
69589;SHT31;56792;50.644;17.984;2024-03-02T12:52:13;14.32;68.77
69589;SHT31;56792;50.644;17.984;2024-03-02T12:54:45;14.31;68.69
69589;SHT31;56792;50.644;17.984;2024-03-02T12:57:18;14.30;68.61
69589;SHT31;56792;50.644;17.984;2024-03-02T12:59:49;14.28;68.30
69589;SHT31;56792;50.644;17.984;2024-03-02T13:02:26;14.31;68.92
69589;SHT31;56792;50.644;17.984;2024-03-02T13:04:59;14.35;68.62
69589;SHT31;56792;50.644;17.984;2024-03-02T13:07:31;14.38;68.43
69589;SHT31;56792;50.644;17.984;2024-03-02T13:10:04;14.37;68.03
69589;SHT31;56792;50.644;17.984;2024-03-02T13:13:00;14.35;68.27
69589;SHT31;56792;50.644;17.984;2024-03-02T13:15:34;14.36;68.48
69589;SHT31;56792;50.644;17.984;2024-03-02T13:18:06;14.34;68.39
69589;SHT31;56792;50.644;17.984;2024-03-02T13:20:38;14.28;68.14
69589;SHT31;56792;50.644;17.984;2024-03-02T13:23:10;14.27;68.79
69589;SHT31;56792;50.644;17.984;2024-03-02T13:25:41;14.29;68.96
69589;SHT31;56792;50.644;17.984;2024-03-02T13:28:14;14.30;69.15
69589;SHT31;56792;50.644;17.984;2024-03-02T13:30:45;14.31;69.30
69589;SHT31;56792;50.644;17.984;2024-03-02T13:33:17;14.33;69.53
69589;SHT31;56792;50.644;17.984;2024-03-02T13:35:49;14.35;69.54
69589;SHT31;56792;50.644;17.984;2024-03-02T13:38:21;14.32;69.44
69589;SHT31;56792;50.644;17.984;2024-03-02T13:40:52;14.31;69.40
69589;SHT31;56792;50.644;17.984;2024-03-02T13:43:24;14.30;69.45
69589;SHT31;56792;50.644;17.984;2024-03-02T13:45:58;14.34;70.06
69589;SHT31;56792;50.644;17.984;2024-03-02T13:48:30;14.35;70.00
69589;SHT31;56792;50.644;17.984;2024-03-02T13:51:01;14.36;70.43
69589;SHT31;56792;50.644;17.984;2024-03-02T13:53:33;14.38;70.43
69589;SHT31;56792;50.644;17.984;2024-03-02T13:56:07;14.37;70.32
69589;SHT31;56792;50.644;17.984;2024-03-02T13:58:38;14.35;70.02
69589;SHT31;56792;50.644;17.984;2024-03-02T14:01:12;14.33;70.05
69589;SHT31;56792;50.644;17.984;2024-03-02T14:03:44;14.28;69.73
69589;SHT31;56792;50.644;17.984;2024-03-02T14:06:15;14.22;69.49
69589;SHT31;56792;50.644;17.984;2024-03-02T14:08:47;14.19;69.69
69589;SHT31;56792;50.644;17.984;2024-03-02T14:11:19;14.16;70.01
69589;SHT31;56792;50.644;17.984;2024-03-02T14:13:50;14.16;70.13
69589;SHT31;56792;50.644;17.984;2024-03-02T14:16:23;14.14;69.93
69589;SHT31;56792;50.644;17.984;2024-03-02T14:18:55;14.11;70.09
69589;SHT31;56792;50.644;17.984;2024-03-02T14:21:27;14.12;70.29
69589;SHT31;56792;50.644;17.984;2024-03-02T14:23:58;14.09;70.14
69589;SHT31;56792;50.644;17.984;2024-03-02T14:26:30;14.05;70.12
69589;SHT31;56792;50.644;17.984;2024-03-02T14:29:03;14.00;69.94
69589;SHT31;56792;50.644;17.984;2024-03-02T14:31:34;13.95;70.02
69589;SHT31;56792;50.644;17.984;2024-03-02T14:34:06;13.90;70.20
69589;SHT31;56792;50.644;17.984;2024-03-02T14:36:37;13.86;70.33
69589;SHT31;56792;50.644;17.984;2024-03-02T14:39:10;13.83;70.45
69589;SHT31;56792;50.644;17.984;2024-03-02T14:41:42;13.79;70.25
69589;SHT31;56792;50.644;17.984;2024-03-02T14:44:14;13.79;70.55
69589;SHT31;56792;50.644;17.984;2024-03-02T14:46:47;13.77;70.49
69589;SHT31;56792;50.644;17.984;2024-03-02T14:49:19;13.74;70.39
69589;SHT31;56792;50.644;17.984;2024-03-02T14:51:51;13.72;70.58
69589;SHT31;56792;50.644;17.984;2024-03-02T14:54:22;13.68;70.62
69589;SHT31;56792;50.644;17.984;2024-03-02T14:56:54;13.64;70.78
69589;SHT31;56792;50.644;17.984;2024-03-02T14:59:25;13.62;71.08
69589;SHT31;56792;50.644;17.984;2024-03-02T15:01:57;13.58;71.13
69589;SHT31;56792;50.644;17.984;2024-03-02T15:04:29;13.55;71.43
69589;SHT31;56792;50.644;17.984;2024-03-02T15:07:00;13.51;71.56
69589;SHT31;56792;50.644;17.984;2024-03-02T15:09:32;13.46;71.78
69589;SHT31;56792;50.644;17.984;2024-03-02T15:12:04;13.40;72.05
69589;SHT31;56792;50.644;17.984;2024-03-02T15:14:39;13.34;72.38
69589;SHT31;56792;50.644;17.984;2024-03-02T15:17:13;13.28;72.68
69589;SHT31;56792;50.644;17.984;2024-03-02T15:19:45;13.22;72.75
69589;SHT31;56792;50.644;17.984;2024-03-02T15:22:17;13.15;72.67
69589;SHT31;56792;50.644;17.984;2024-03-02T15:24:49;13.08;72.83
69589;SHT31;56792;50.644;17.984;2024-03-02T15:27:20;12.99;73.18
69589;SHT31;56792;50.644;17.984;2024-03-02T15:29:54;12.94;73.53
69589;SHT31;56792;50.644;17.984;2024-03-02T15:32:25;12.87;73.80
69589;SHT31;56792;50.644;17.984;2024-03-02T15:34:57;12.83;74.14
69589;SHT31;56792;50.644;17.984;2024-03-02T15:37:28;12.79;74.38
69589;SHT31;56792;50.644;17.984;2024-03-02T15:40:00;12.74;74.31
69589;SHT31;56792;50.644;17.984;2024-03-02T15:42:35;12.68;74.28
69589;SHT31;56792;50.644;17.984;2024-03-02T15:45:07;12.63;74.41
69589;SHT31;56792;50.644;17.984;2024-03-02T15:47:39;12.60;74.66
69589;SHT31;56792;50.644;17.984;2024-03-02T15:50:11;12.58;74.62
69589;SHT31;56792;50.644;17.984;2024-03-02T15:52:42;12.53;74.51
69589;SHT31;56792;50.644;17.984;2024-03-02T15:55:14;12.47;74.31
69589;SHT31;56792;50.644;17.984;2024-03-02T15:57:46;12.42;74.36
69589;SHT31;56792;50.644;17.984;2024-03-02T16:00:18;12.37;74.50